Time;durP1;ratioP1;P1;durP2;ratioP2;P2;SDS_P1;SDS_P2;PMS_P1;PMS_P2;Temp;Humidity;BMP_temperature;BMP_pressure;BME280_temperature;BME280_humidity;BME280_pressure;Samples;Min_cycle;Max_cycle;Signal;HPM_P1;HPM_P2
2022/07/27 00:00:47;;;;;;;2.22;1.20;;;20.50;97.00;;;;;;4973759;28;20031;-49
2022/07/27 00:03:12;;;;;;;1.55;1.20;;;20.50;97.00;;;;;;4973577;28;20054;-52
2022/07/27 00:05:38;;;;;;;2.10;1.17;;;20.50;97.10;;;;;;4973160;28;20031;-49
2022/07/27 00:08:05;;;;;;;2.30;0.95;;;20.50;97.20;;;;;;4973725;28;20035;-50
2022/07/27 00:10:31;;;;;;;2.50;0.90;;;20.60;97.10;;;;;;4973570;28;20039;-52
2022/07/27 00:12:57;;;;;;;1.33;1.13;;;20.60;96.90;;;;;;4973473;28;20027;-53
2022/07/27 00:15:22;;;;;;;1.50;1.30;;;20.50;97.20;;;;;;4973318;28;20023;-53
2022/07/27 00:17:47;;;;;;;1.75;1.05;;;20.50;97.50;;;;;;4973422;28;20042;-50
2022/07/27 00:20:13;;;;;;;2.28;1.38;;;20.40;97.50;;;;;;4973354;28;20403;-54
2022/07/27 00:22:39;;;;;;;5.13;2.58;;;20.40;97.70;;;;;;4973541;28;20027;-51
2022/07/27 00:25:05;;;;;;;1.00;1.00;;;20.40;97.70;;;;;;4973136;28;20546;-50
2022/07/27 00:27:30;;;;;;;2.08;1.42;;;20.40;97.80;;;;;;4972862;28;20114;-54
2022/07/27 00:29:56;;;;;;;1.77;1.15;;;20.40;97.80;;;;;;4973004;28;20035;-55
2022/07/27 00:32:21;;;;;;;1.23;1.13;;;20.40;97.70;;;;;;4973355;28;20492;-49
2022/07/27 00:34:47;;;;;;;1.13;1.00;;;20.40;97.80;;;;;;4972808;28;20035;-50
2022/07/27 00:37:13;;;;;;;3.85;1.40;;;20.40;97.80;;;;;;4972587;28;20034;-51
2022/07/27 00:39:39;;;;;;;2.75;1.30;;;20.40;97.90;;;;;;4971950;28;20436;-50
2022/07/27 00:42:04;;;;;;;6.80;1.10;;;20.40;98.10;;;;;;4973177;28;20023;-55
2022/07/27 00:44:33;;;;;;;1.25;0.90;;;20.30;98.50;;;;;;4972831;28;20036;-54
2022/07/27 00:46:58;;;;;;;2.70;1.35;;;20.30;98.20;;;;;;4972822;28;20025;-52
2022/07/27 00:49:27;;;;;;;1.15;0.88;;;20.30;98.20;;;;;;4972963;28;20031;-55
2022/07/27 00:51:53;;;;;;;2.15;1.80;;;20.30;98.20;;;;;;4973197;28;20076;-55
2022/07/27 00:54:20;;;;;;;1.38;1.30;;;20.20;98.30;;;;;;4972703;28;20033;-55
2022/07/27 00:56:46;;;;;;;1.42;1.30;;;20.30;98.30;;;;;;4972961;28;20411;-52
2022/07/27 00:59:13;;;;;;;3.17;1.30;;;20.30;98.10;;;;;;4972893;28;20023;-52
2022/07/27 01:01:39;;;;;;;2.42;1.27;;;20.40;97.80;;;;;;4972664;28;20450;-53
2022/07/27 01:04:05;;;;;;;1.30;0.88;;;20.40;97.70;;;;;;4972567;28;20027;-51
2022/07/27 01:06:32;;;;;;;0.90;0.90;;;20.40;97.70;;;;;;4972913;28;20030;-50
2022/07/27 01:11:47;;;;;;;1.10;1.00;;;20.30;97.90;;;;;;4972962;28;20380;-55
2022/07/27 01:14:14;;;;;;;2.15;1.02;;;20.30;97.80;;;;;;4972057;28;20031;-55
2022/07/27 01:16:40;;;;;;;3.40;1.13;;;20.20;98.10;;;;;;4972747;28;20503;-54
2022/07/27 01:19:11;;;;;;;1.10;1.10;;;20.10;98.20;;;;;;4972584;28;20039;-50
2022/07/27 01:21:37;;;;;;;0.90;0.90;;;20.10;98.30;;;;;;4972779;28;20555;-53
2022/07/27 01:24:03;;;;;;;1.25;1.20;;;20.00;98.40;;;;;;4971852;28;20062;-53
2022/07/27 01:26:31;;;;;;;2.10;0.95;;;19.90;98.70;;;;;;4972730;28;20022;-52
2022/07/27 01:28:58;;;;;;;2.95;0.90;;;19.80;99.00;;;;;;4972429;28;20035;-51
2022/07/27 01:31:23;;;;;;;2.53;1.15;;;19.80;99.10;;;;;;4972624;28;20027;-51
2022/07/27 01:33:49;;;;;;;1.05;1.00;;;19.80;99.20;;;;;;4972196;28;20026;-54
2022/07/27 01:36:15;;;;;;;1.35;1.25;;;19.80;99.30;;;;;;4971231;28;20286;-50
2022/07/27 01:38:40;;;;;;;1.23;1.10;;;19.80;99.40;;;;;;4972019;28;20039;-49
2022/07/27 01:41:06;;;;;;;1.92;1.17;;;19.80;99.50;;;;;;4976399;28;20023;-50
2022/07/27 01:43:31;;;;;;;1.33;1.23;;;19.70;99.50;;;;;;4975993;28;20061;-53
2022/07/27 01:45:58;;;;;;;1.10;1.00;;;19.70;99.80;;;;;;4976541;28;20027;-50
2022/07/27 01:48:24;;;;;;;1.20;1.10;;;19.70;99.90;;;;;;4976378;28;20081;-49
2022/07/27 01:50:50;;;;;;;1.40;1.30;;;19.60;99.90;;;;;;4976215;28;20101;-49
2022/07/27 01:53:16;;;;;;;1.55;1.20;;;19.60;99.90;;;;;;4975776;28;20031;-49
2022/07/27 01:55:41;;;;;;;2.70;1.00;;;19.50;99.90;;;;;;4974841;28;20023;-49
2022/07/27 01:58:07;;;;;;;3.92;1.00;;;19.50;99.90;;;;;;4974657;28;20043;-52
2022/07/27 02:00:33;;;;;;;1.83;0.85;;;19.40;99.90;;;;;;4976276;28;20106;-52
2022/07/27 02:03:00;;;;;;;2.55;0.77;;;19.50;99.90;;;;;;4975939;28;20106;-50
2022/07/27 02:05:25;;;;;;;1.08;0.82;;;19.50;99.90;;;;;;4975536;28;20575;-50
2022/07/27 02:07:51;;;;;;;3.83;0.90;;;19.40;99.90;;;;;;4975785;28;20114;-52
2022/07/27 02:10:16;;;;;;;3.50;0.80;;;19.40;99.90;;;;;;4975723;28;20097;-52
2022/07/27 02:12:43;;;;;;;0.80;0.80;;;19.40;99.90;;;;;;4975746;28;20019;-49
2022/07/27 02:15:11;;;;;;;0.52;0.52;;;19.50;99.90;;;;;;4975545;28;20019;-54
2022/07/27 02:17:39;;;;;;;2.83;0.90;;;19.50;99.90;;;;;;4975767;28;20023;-53
2022/07/27 02:20:06;;;;;;;2.40;0.70;;;19.50;99.90;;;;;;4975768;28;20050;-55
2022/07/27 02:22:32;;;;;;;0.68;0.60;;;19.40;99.90;;;;;;4975591;28;20038;-50
2022/07/27 02:24:58;;;;;;;0.60;0.60;;;19.40;99.90;;;;;;4975315;28;20400;-54
2022/07/27 02:27:24;;;;;;;2.10;0.75;;;19.40;99.90;;;;;;4975726;28;20140;-53
2022/07/27 02:29:49;;;;;;;0.88;0.73;;;19.30;99.90;;;;;;4975608;28;20459;-50
2022/07/27 02:32:15;;;;;;;2.35;0.95;;;19.30;99.90;;;;;;4974000;28;20034;-54
2022/07/27 02:34:41;;;;;;;0.77;0.70;;;19.40;99.90;;;;;;4975360;28;20085;-54
2022/07/27 02:37:07;;;;;;;0.70;0.70;;;19.40;99.90;;;;;;4975163;28;20099;-54
2022/07/27 02:39:33;;;;;;;1.65;0.75;;;19.30;99.90;;;;;;4975335;28;20050;-55
2022/07/27 02:41:58;;;;;;;0.70;0.70;;;19.40;99.90;;;;;;4975525;28;20428;-52
2022/07/27 02:44:24;;;;;;;1.00;0.77;;;19.30;99.90;;;;;;4973745;28;20022;-51
2022/07/27 02:46:49;;;;;;;0.77;0.77;;;19.20;99.90;;;;;;4974087;28;20027;-51
2022/07/27 02:49:15;;;;;;;1.25;0.73;;;19.20;99.90;;;;;;4975521;28;20109;-54
2022/07/27 02:51:40;;;;;;;0.80;0.80;;;19.20;99.90;;;;;;4974162;28;20471;-51
2022/07/27 02:54:06;;;;;;;1.85;0.80;;;19.20;99.90;;;;;;4974701;28;20031;-53
2022/07/27 02:56:32;;;;;;;0.82;0.70;;;19.20;99.90;;;;;;4974766;28;20023;-51
2022/07/27 02:58:58;;;;;;;1.23;0.70;;;19.30;99.90;;;;;;4975074;28;20038;-50
2022/07/27 03:01:23;;;;;;;1.08;0.80;;;19.20;99.90;;;;;;4975000;28;20459;-51
2022/07/27 03:03:49;;;;;;;1.02;0.85;;;19.20;99.90;;;;;;4974770;28;20030;-48
2022/07/27 03:06:14;;;;;;;2.25;0.88;;;19.10;99.90;;;;;;4975006;28;20023;-55
2022/07/27 03:08:40;;;;;;;1.50;0.93;;;19.10;99.90;;;;;;4974633;28;20050;-53
2022/07/27 03:11:07;;;;;;;2.42;0.77;;;19.20;99.90;;;;;;4975833;28;20403;-52
2022/07/27 03:13:32;;;;;;;0.70;0.70;;;19.10;99.90;;;;;;4974230;28;20033;-52
2022/07/27 03:15:58;;;;;;;1.60;0.55;;;19.00;99.90;;;;;;4974764;28;20110;-56
2022/07/27 03:18:24;;;;;;;9.05;1.05;;;19.00;99.90;;;;;;4974492;28;20030;-52
2022/07/27 03:20:49;;;;;;;1.50;0.80;;;18.90;99.90;;;;;;4974506;28;20058;-53
2022/07/27 03:23:17;;;;;;;2.00;0.70;;;18.90;99.90;;;;;;4974139;28;20445;-50
2022/07/27 03:25:43;;;;;;;1.80;1.13;;;19.00;99.90;;;;;;4974537;28;20041;-54
2022/07/27 03:28:08;;;;;;;1.10;0.90;;;18.90;99.90;;;;;;4974487;28;20577;-53
2022/07/27 03:30:34;;;;;;;1.10;1.00;;;18.80;99.90;;;;;;4972826;28;20031;-53
2022/07/27 03:33:00;;;;;;;1.02;0.80;;;18.80;99.90;;;;;;4974150;28;20022;-52
2022/07/27 03:35:25;;;;;;;5.45;0.90;;;18.70;99.90;;;;;;4974222;28;20043;-53
2022/07/27 03:37:51;;;;;;;1.85;1.02;;;18.80;99.90;;;;;;4974015;28;20035;-53
2022/07/27 03:40:17;;;;;;;1.27;0.82;;;18.80;99.90;;;;;;4974223;28;20387;-53
2022/07/27 03:42:42;;;;;;;1.38;0.75;;;18.70;99.90;;;;;;4974465;28;20069;-54
2022/07/27 03:45:08;;;;;;;4.32;0.80;;;18.70;99.90;;;;;;4974102;28;20050;-52
2022/07/27 03:47:34;;;;;;;1.20;1.02;;;18.70;99.90;;;;;;4974268;28;20037;-52
2022/07/27 03:49:59;;;;;;;4.32;0.80;;;18.70;99.90;;;;;;4973987;28;20208;-53
2022/07/27 03:52:25;;;;;;;0.90;0.90;;;18.60;99.90;;;;;;4973193;28;20085;-51
2022/07/27 03:54:50;;;;;;;1.98;1.00;;;18.60;99.90;;;;;;4973715;28;20165;-52
2022/07/27 03:57:16;;;;;;;2.58;1.25;;;18.50;99.90;;;;;;4973971;28;20035;-50
2022/07/27 03:59:41;;;;;;;2.08;0.90;;;18.60;99.90;;;;;;4973910;28;20027;-49
2022/07/27 04:02:07;;;;;;;3.55;1.92;;;18.60;99.90;;;;;;4973814;28;20109;-54
2022/07/27 04:04:32;;;;;;;2.40;1.10;;;18.70;99.90;;;;;;4973200;28;20113;-51
2022/07/27 04:06:58;;;;;;;9.90;1.38;;;18.80;99.90;;;;;;4973429;28;20030;-52
2022/07/27 04:09:23;;;;;;;2.88;1.00;;;18.80;99.90;;;;;;4973472;28;20085;-50
2022/07/27 04:11:49;;;;;;;2.05;0.98;;;18.80;99.90;;;;;;4973471;28;20037;-55
2022/07/27 04:14:15;;;;;;;1.70;1.10;;;18.70;99.90;;;;;;4972164;28;20458;-52
2022/07/27 04:16:40;;;;;;;2.75;1.33;;;18.80;99.90;;;;;;4973562;28;20034;-52
2022/07/27 04:19:06;;;;;;;6.15;1.38;;;18.80;99.90;;;;;;4973479;28;20078;-54
2022/07/27 04:21:33;;;;;;;2.42;0.73;;;18.80;99.90;;;;;;4973455;28;20437;-55
2022/07/27 04:23:59;;;;;;;1.70;0.82;;;18.80;99.90;;;;;;4972704;28;20051;-50
2022/07/27 04:26:25;;;;;;;5.18;1.08;;;18.80;99.90;;;;;;4973445;28;20038;-48
2022/07/27 04:28:50;;;;;;;4.82;1.95;;;18.70;99.90;;;;;;4973427;28;20031;-49
2022/07/27 04:31:16;;;;;;;1.90;0.98;;;18.60;99.90;;;;;;4972995;28;20097;-50
2022/07/27 04:33:41;;;;;;;6.00;1.33;;;18.60;99.90;;;;;;4972998;28;20038;-51
2022/07/27 04:36:07;;;;;;;1.67;1.20;;;18.60;99.90;;;;;;4973033;28;20480;-53
2022/07/27 04:38:33;;;;;;;2.92;0.90;;;18.70;99.90;;;;;;4972808;28;20027;-51
2022/07/27 04:40:59;;;;;;;2.97;1.00;;;18.70;99.90;;;;;;4973027;28;20049;-53
2022/07/27 04:43:24;;;;;;;4.18;1.10;;;18.60;99.90;;;;;;4972734;28;20110;-51
2022/07/27 04:45:49;;;;;;;3.80;1.50;;;18.60;99.90;;;;;;4973081;28;20118;-54
2022/07/27 04:48:15;;;;;;;4.88;1.10;;;18.60;99.90;;;;;;4972677;28;20027;-55
2022/07/27 04:50:46;;;;;;;2.45;1.00;;;18.60;99.90;;;;;;4972829;28;20053;-52
2022/07/27 04:53:12;;;;;;;3.97;1.42;;;18.70;99.90;;;;;;4971389;28;20110;-51
2022/07/27 04:55:42;;;;;;;4.65;1.10;;;18.60;99.90;;;;;;4972828;28;20031;-52
2022/07/27 04:58:08;;;;;;;4.30;1.10;;;18.50;99.90;;;;;;4972793;28;20435;-51
2022/07/27 05:00:34;;;;;;;5.30;1.27;;;18.40;99.90;;;;;;4972980;28;20126;-50
2022/07/27 05:03:00;;;;;;;3.00;1.55;;;18.40;99.90;;;;;;4972708;28;20105;-52
2022/07/27 05:05:25;;;;;;;2.47;1.15;;;18.50;99.90;;;;;;4972718;28;20031;-52
2022/07/27 05:07:51;;;;;;;7.65;1.60;;;18.50;99.90;;;;;;4970533;28;20026;-52
2022/07/27 05:10:17;;;;;;;5.60;1.20;;;18.50;99.90;;;;;;4972556;28;20121;-55
2022/07/27 05:12:42;;;;;;;3.30;1.15;;;18.50;99.90;;;;;;4973147;28;20154;-52
2022/07/27 05:15:08;;;;;;;9.18;1.65;;;18.50;99.90;;;;;;4971322;28;20523;-52
2022/07/27 05:17:34;;;;;;;4.47;0.90;;;18.40;99.90;;;;;;4972673;28;20104;-53
2022/07/27 05:19:59;;;;;;;3.17;1.70;;;18.40;99.90;;;;;;4972040;28;20400;-52
2022/07/27 05:22:25;;;;;;;8.65;1.30;;;18.50;99.90;;;;;;4971411;28;20027;-50
2022/07/27 05:24:50;;;;;;;7.60;1.40;;;18.70;99.90;;;;;;4972260;28;20403;-53
2022/07/27 05:27:16;;;;;;;8.25;1.38;;;18.70;99.90;;;;;;4972992;28;20395;-49
2022/07/27 05:29:42;;;;;;;4.95;1.73;;;18.60;99.90;;;;;;4972343;28;20057;-55
2022/07/27 05:32:08;;;;;;;3.33;1.35;;;18.60;99.90;;;;;;4971511;28;20130;-55
2022/07/27 05:34:33;;;;;;;4.88;1.27;;;18.60;99.90;;;;;;4972312;28;20023;-53
2022/07/27 05:36:59;;;;;;;5.55;1.95;;;18.70;99.90;;;;;;4972507;28;20039;-53
2022/07/27 05:39:25;;;;;;;6.68;1.17;;;18.70;99.90;;;;;;4970853;28;20031;-49
2022/07/27 05:41:50;;;;;;;4.47;1.38;;;18.70;99.90;;;;;;4972213;28;20042;-53
2022/07/27 05:44:16;;;;;;;6.10;1.55;;;18.80;99.90;;;;;;4970839;28;20027;-52
2022/07/27 05:46:41;;;;;;;2.50;1.67;;;18.90;99.90;;;;;;4972558;28;20492;-49
2022/07/27 05:49:07;;;;;;;6.00;1.20;;;19.00;99.90;;;;;;4971253;28;20082;-49
2022/07/27 05:51:32;;;;;;;2.50;1.05;;;19.00;99.90;;;;;;4972135;28;20077;-51
2022/07/27 05:53:58;;;;;;;3.63;1.83;;;19.20;99.90;;;;;;4971050;28;20077;-53
2022/07/27 05:56:24;;;;;;;6.78;1.85;;;19.30;99.90;;;;;;4972202;28;20031;-52
2022/07/27 05:58:49;;;;;;;3.45;1.45;;;19.50;99.90;;;;;;4972028;28;20026;-54
2022/07/27 06:01:15;;;;;;;10.05;1.60;;;19.70;99.90;;;;;;4971207;28;20023;-52
2022/07/27 06:03:41;;;;;;;6.65;1.45;;;20.30;99.90;;;;;;4971411;28;20043;-55
2022/07/27 06:08:50;;;;;;;10.90;1.60;;;20.60;98.90;;;;;;4971901;28;20042;-50
2022/07/27 06:11:16;;;;;;;5.85;1.52;;;20.50;98.90;;;;;;4973076;28;20481;-51
2022/07/27 06:13:42;;;;;;;2.10;0.90;;;20.60;99.30;;;;;;4972315;28;20026;-54
2022/07/27 06:16:08;;;;;;;8.55;1.67;;;20.80;98.70;;;;;;4971648;28;20046;-51
2022/07/27 06:18:33;;;;;;;5.20;1.80;;;20.70;98.80;;;;;;4975009;28;20134;-55
2022/07/27 06:21:00;;;;;;;4.35;1.55;;;21.00;98.20;;;;;;4983631;28;20122;-50
2022/07/27 06:23:26;;;;;;;8.60;1.38;;;20.90;98.30;;;;;;4970568;28;20498;-50
2022/07/27 06:25:52;;;;;;;10.20;1.50;;;21.10;98.00;;;;;;4971436;28;20023;-51
2022/07/27 06:28:18;;;;;;;9.15;1.50;;;21.00;97.90;;;;;;4974044;28;20428;-49
2022/07/27 06:30:44;;;;;;;4.72;1.58;;;21.20;98.00;;;;;;4975573;28;20027;-49
2022/07/27 06:33:09;;;;;;;6.60;1.73;;;21.50;97.00;;;;;;4974978;28;20019;-47
2022/07/27 06:35:35;;;;;;;8.90;1.75;;;21.90;96.60;;;;;;4975506;28;20122;-52
2022/07/27 06:38:01;;;;;;;2.53;1.08;;;22.50;95.40;;;;;;4974096;28;20027;-54
2022/07/27 06:40:27;;;;;;;5.60;1.50;;;22.20;95.00;;;;;;4975243;28;20418;-49
2022/07/27 06:42:53;;;;;;;7.75;1.30;;;22.50;94.90;;;;;;4975385;28;20022;-53
2022/07/27 06:45:18;;;;;;;6.28;2.50;;;22.50;94.70;;;;;;4973639;28;20104;-49
2022/07/27 06:47:44;;;;;;;4.43;1.50;;;23.00;94.00;;;;;;4975219;28;20022;-49
2022/07/27 06:50:09;;;;;;;4.97;1.50;;;23.70;92.70;;;;;;4975262;28;20027;-48
2022/07/27 06:52:35;;;;;;;2.15;1.10;;;24.80;91.60;;;;;;4974009;28;20035;-53
2022/07/27 06:55:00;;;;;;;5.47;1.10;;;25.60;90.00;;;;;;4974654;28;20066;-48
2022/07/27 06:57:26;;;;;;;12.23;1.35;;;25.90;87.90;;;;;;4973155;28;20118;-51
2022/07/27 06:59:52;;;;;;;5.40;1.15;;;25.80;87.10;;;;;;4974774;28;20037;-56
2022/07/27 07:02:19;;;;;;;6.72;1.17;;;25.50;87.30;;;;;;4974849;28;20019;-48
2022/07/27 07:04:44;;;;;;;7.30;1.30;;;25.40;86.70;;;;;;4973469;28;20031;-52
2022/07/27 07:07:10;;;;;;;7.72;1.20;;;25.50;87.30;;;;;;4974643;28;20037;-52
2022/07/27 07:09:36;;;;;;;5.47;1.35;;;25.90;85.40;;;;;;4974383;28;20077;-57
2022/07/27 07:12:02;;;;;;;4.70;1.55;;;26.20;84.80;;;;;;4974352;28;20030;-50
2022/07/27 07:14:27;;;;;;;3.10;1.27;;;26.60;83.20;;;;;;4973622;28;20030;-49
2022/07/27 07:16:53;;;;;;;9.13;2.13;;;26.20;83.50;;;;;;4974525;28;20042;-50
2022/07/27 07:19:19;;;;;;;5.68;1.33;;;26.00;83.60;;;;;;4973890;28;20023;-48
2022/07/27 07:21:45;;;;;;;4.00;1.20;;;26.20;82.90;;;;;;4973313;28;20030;-53
2022/07/27 07:24:10;;;;;;;11.82;1.55;;;27.00;81.20;;;;;;4972505;28;20039;-51
2022/07/27 07:26:38;;;;;;;6.10;1.38;;;27.40;79.60;;;;;;4973768;28;20023;-56
2022/07/27 07:29:04;;;;;;;3.63;1.45;;;27.50;79.40;;;;;;4974797;28;20133;-55
2022/07/27 07:31:29;;;;;;;7.88;1.52;;;27.30;79.80;;;;;;4966372;28;20047;-51
2022/07/27 07:33:56;;;;;;;6.45;1.75;;;27.20;79.30;;;;;;4960278;28;20066;-54
2022/07/27 07:36:22;;;;;;;8.02;2.45;;;27.50;78.70;;;;;;4973325;28;20038;-54
2022/07/27 07:38:47;;;;;;;16.05;1.35;;;27.30;79.00;;;;;;4972163;28;20035;-51
2022/07/27 07:41:13;;;;;;;10.07;1.00;;;26.70;80.00;;;;;;4972982;28;20030;-49
2022/07/27 07:43:39;;;;;;;6.82;1.27;;;26.10;80.10;;;;;;4974514;28;20038;-49
2022/07/27 07:46:05;;;;;;;5.60;1.05;;;26.00;81.40;;;;;;4975062;28;20038;-51
2022/07/27 07:48:31;;;;;;;5.65;1.52;;;26.30;80.90;;;;;;4974532;28;20448;-51
2022/07/27 07:50:56;;;;;;;8.77;1.42;;;26.80;79.80;;;;;;4974643;28;20033;-53
2022/07/27 07:53:22;;;;;;;5.50;1.17;;;26.60;78.90;;;;;;4974174;28;20105;-49
2022/07/27 07:55:48;;;;;;;4.38;1.25;;;26.50;79.90;;;;;;4974379;28;20035;-49
2022/07/27 07:58:14;;;;;;;3.58;1.10;;;26.80;79.20;;;;;;4972112;28;20125;-50
2022/07/27 08:00:40;;;;;;;6.20;1.65;;;27.60;77.20;;;;;;4974208;28;20097;-52
2022/07/27 08:03:06;;;;;;;2.75;0.85;;;27.60;76.90;;;;;;4973752;28;20062;-53
2022/07/27 08:05:32;;;;;;;2.53;1.30;;;26.70;77.70;;;;;;4973978;28;20026;-51
2022/07/27 08:07:57;;;;;;;5.22;1.05;;;26.60;78.80;;;;;;4974228;28;20101;-53
2022/07/27 08:10:23;;;;;;;3.45;1.10;;;26.40;79.30;;;;;;4974113;28;20051;-52
2022/07/27 08:12:53;;;;;;;8.35;1.35;;;26.40;78.40;;;;;;4974016;28;20408;-51
2022/07/27 08:15:19;;;;;;;3.58;1.23;;;25.00;80.60;;;;;;4973994;28;20030;-49
2022/07/27 08:17:44;;;;;;;4.60;1.95;;;23.80;84.80;;;;;;4974249;28;20022;-48
2022/07/27 08:20:12;;;;;;;3.00;1.05;;;23.40;86.40;;;;;;4973453;28;20031;-49
2022/07/27 08:22:38;;;;;;;8.02;2.17;;;22.90;87.60;;;;;;4972715;28;20023;-54
2022/07/27 08:25:04;;;;;;;4.10;1.58;;;22.40;89.60;;;;;;4972303;28;20023;-50
2022/07/27 08:27:30;;;;;;;4.45;1.63;;;22.10;90.10;;;;;;4973742;28;20027;-50
2022/07/27 08:29:56;;;;;;;18.95;11.90;;;21.80;90.70;;;;;;4973550;28;20377;-52
2022/07/27 08:32:21;;;;;;;6.38;1.83;;;22.00;90.80;;;;;;4973584;28;20031;-48
2022/07/27 08:34:47;;;;;;;5.43;1.80;;;21.90;90.70;;;;;;4973200;28;20030;-49
2022/07/27 08:37:12;;;;;;;5.85;1.70;;;21.80;90.80;;;;;;4973293;28;20035;-56
2022/07/27 08:39:38;;;;;;;5.80;1.67;;;21.70;90.70;;;;;;4972070;28;20110;-51
2022/07/27 08:42:08;;;;;;;8.52;2.25;;;21.50;91.30;;;;;;4973371;28;20089;-50
2022/07/27 08:44:34;;;;;;;5.65;1.58;;;22.00;90.90;;;;;;4973081;28;20041;-48
2022/07/27 08:47:01;;;;;;;5.80;1.85;;;22.60;90.50;;;;;;4973661;28;20031;-50
2022/07/27 08:49:28;;;;;;;7.63;1.52;;;23.00;89.20;;;;;;4972323;28;20053;-51
2022/07/27 08:51:54;;;;;;;8.52;1.25;;;22.70;87.30;;;;;;4973459;28;20101;-52
2022/07/27 08:54:20;;;;;;;4.38;1.80;;;22.20;86.50;;;;;;4971890;28;20539;-51
2022/07/27 08:56:46;;;;;;;10.77;2.55;;;21.90;86.60;;;;;;4971177;28;20385;-49
2022/07/27 08:59:12;;;;;;;6.30;1.88;;;21.70;87.90;;;;;;4971400;28;20074;-49
2022/07/27 09:01:38;;;;;;;3.95;1.15;;;21.50;88.60;;;;;;4971213;28;20030;-53
2022/07/27 09:04:03;;;;;;;3.10;1.60;;;21.60;88.40;;;;;;4972515;28;20097;-51
2022/07/27 09:06:46;;;;;;;5.13;1.60;;;21.70;87.60;;;;;;4973121;28;20477;-50
2022/07/27 09:09:14;;;;;;;4.95;1.13;;;21.90;86.30;;;;;;4997754;23;20034;-49
2022/07/27 09:11:40;;;;;;;5.85;1.48;;;21.50;86.00;;;;;;4950797;29;20551;-55
2022/07/27 09:14:08;;;;;;;4.85;1.10;;;21.60;86.80;;;;;;4953064;28;20047;-46
2022/07/27 09:16:34;;;;;;;7.13;1.60;;;21.90;86.50;;;;;;4953594;28;20028;-49
2022/07/27 09:19:07;;;;;;;6.00;1.33;;;22.20;84.30;;;;;;4952686;29;20051;-51
2022/07/27 09:21:34;;;;;;;5.03;1.50;;;22.10;84.90;;;;;;4933524;29;20035;-49
2022/07/27 09:24:10;;;;;;;5.78;1.48;;;22.60;84.50;;;;;;4934084;29;20063;-49
2022/07/27 09:26:37;;;;;;;6.20;1.38;;;23.00;83.50;;;;;;4933102;29;20131;-49
2022/07/27 09:29:09;;;;;;;6.78;1.30;;;23.20;83.00;;;;;;4934413;29;20405;-51
2022/07/27 09:31:41;;;;;;;11.30;2.05;;;23.20;83.00;;;;;;4934383;29;20028;-51
2022/07/27 09:34:07;;;;;;;36.58;17.40;;;23.10;82.40;;;;;;4934045;29;20023;-49
2022/07/27 09:36:33;;;;;;;5.90;1.88;;;23.00;83.30;;;;;;4932655;29;20020;-50
2022/07/27 09:39:01;;;;;;;3.55;1.30;;;23.30;81.30;;;;;;4934063;29;20034;-48
2022/07/27 09:41:38;;;;;;;6.13;1.73;;;23.40;80.10;;;;;;4934126;29;20548;-55
2022/07/27 09:44:04;;;;;;;4.13;1.33;;;23.60;80.70;;;;;;4932740;29;20035;-50
2022/07/27 09:46:36;;;;;;;4.82;1.55;;;23.50;79.80;;;;;;4934042;29;20512;-53
2022/07/27 09:49:03;;;;;;;5.32;1.45;;;23.80;79.30;;;;;;4933977;29;20489;-52
2022/07/27 09:51:29;;;;;;;4.68;1.30;;;23.90;78.70;;;;;;4934043;29;20032;-52
2022/07/27 09:53:58;;;;;;;6.07;1.80;;;24.10;77.80;;;;;;4933691;29;20169;-51
2022/07/27 09:56:25;;;;;;;2.38;1.20;;;24.10;78.30;;;;;;4933850;29;20110;-49
2022/07/27 09:58:55;;;;;;;6.18;1.48;;;24.00;77.80;;;;;;4932092;29;20032;-55
2022/07/27 10:01:23;;;;;;;4.55;1.42;;;24.10;77.80;;;;;;4936439;29;20023;-57
2022/07/27 10:03:52;;;;;;;9.25;1.52;;;24.30;77.40;;;;;;4937199;29;20027;-50
2022/07/27 10:06:17;;;;;;;4.65;1.45;;;24.40;77.30;;;;;;4937948;29;20020;-49
2022/07/27 10:08:46;;;;;;;2.50;1.25;;;24.50;77.10;;;;;;4936198;29;20066;-50
2022/07/27 10:11:12;;;;;;;10.15;1.58;;;24.80;78.20;;;;;;4937240;29;20599;-53
2022/07/27 10:13:38;;;;;;;4.10;1.20;;;24.60;76.40;;;;;;4937019;29;20027;-49
2022/07/27 10:16:05;;;;;;;3.78;2.20;;;24.40;76.90;;;;;;4937153;29;20026;-54
2022/07/27 10:18:49;;;;;;;7.78;1.50;;;24.00;78.30;;;;;;4937180;29;20039;-54
2022/07/27 10:21:15;;;;;;;7.30;1.65;;;23.70;79.10;;;;;;4937190;29;20031;-48
2022/07/27 10:24:21;;;;;;;4.47;1.30;;;23.60;78.40;;;;;;4936860;29;20035;-49
2022/07/27 10:26:47;;;;;;;7.07;1.98;;;23.50;78.70;;;;;;4937238;29;20481;-51
2022/07/27 10:29:12;;;;;;;3.28;1.50;;;23.30;79.10;;;;;;4937014;29;20038;-52
2022/07/27 10:32:08;;;;;;;3.53;1.67;;;23.30;80.20;;;;;;4936912;29;20038;-50
2022/07/27 10:34:35;;;;;;;3.63;1.25;;;23.20;80.00;;;;;;4924193;29;20035;-52
2022/07/27 10:37:10;;;;;;;4.03;1.30;;;23.30;80.20;;;;;;4936982;29;20050;-57
2022/07/27 10:39:39;;;;;;;4.75;1.40;;;23.50;79.80;;;;;;4936742;29;20536;-51
2022/07/27 10:42:18;;;;;;;2.92;1.27;;;23.40;79.50;;;;;;4937077;29;20035;-54
2022/07/27 10:45:00;;;;;;;1.17;0.93;;;23.30;78.70;;;;;;4936489;29;20035;-49
2022/07/27 10:47:30;;;;;;;5.22;1.42;;;23.50;78.20;;;;;;4936649;29;20039;-54
2022/07/27 10:50:14;;;;;;;4.05;1.30;;;23.70;78.30;;;;;;4936668;29;20031;-50
2022/07/27 10:52:41;;;;;;;7.05;1.10;;;24.00;78.00;;;;;;4936716;29;20023;-54
2022/07/27 10:55:07;;;;;;;5.97;1.30;;;24.40;76.00;;;;;;4936273;29;20051;-50
2022/07/27 10:57:35;;;;;;;3.40;2.13;;;24.50;75.60;;;;;;4936546;29;20038;-53
2022/07/27 11:00:08;;;;;;;11.52;3.10;;;24.40;75.60;;;;;;4936491;29;20031;-50
2022/07/27 11:02:41;;;;;;;2.72;1.10;;;24.30;75.40;;;;;;4936742;29;20031;-55
2022/07/27 11:05:07;;;;;;;11.68;1.55;;;24.10;76.30;;;;;;4936580;29;20511;-54
2022/07/27 11:07:33;;;;;;;2.47;1.35;;;24.10;76.00;;;;;;4936414;29;20035;-52
2022/07/27 11:10:00;;;;;;;3.25;1.30;;;24.10;76.10;;;;;;4936183;29;20094;-50
2022/07/27 11:12:28;;;;;;;4.97;1.65;;;24.30;76.80;;;;;;4935642;29;20023;-54
2022/07/27 11:14:55;;;;;;;9.07;1.90;;;24.40;74.90;;;;;;4936050;29;20028;-51
2022/07/27 11:17:24;;;;;;;5.50;1.65;;;24.30;74.40;;;;;;4936273;29;20047;-51
2022/07/27 11:19:56;;;;;;;5.30;1.33;;;24.30;75.00;;;;;;4936938;29;20032;-50
2022/07/27 11:22:32;;;;;;;5.70;1.30;;;24.30;75.10;;;;;;4935929;29;20039;-50
2022/07/27 11:24:58;;;;;;;3.85;1.40;;;24.10;74.60;;;;;;4935668;29;20112;-52
2022/07/27 11:27:25;;;;;;;3.47;1.30;;;23.90;75.50;;;;;;4935862;29;20023;-54
2022/07/27 11:29:50;;;;;;;3.83;1.40;;;23.50;75.80;;;;;;4935565;29;20031;-50
2022/07/27 11:32:17;;;;;;;2.13;1.27;;;23.50;76.90;;;;;;4935923;29;20099;-52
2022/07/27 11:34:43;;;;;;;2.53;1.10;;;23.60;76.50;;;;;;4935389;29;20055;-49
2022/07/27 11:37:17;;;;;;;2.90;1.45;;;23.80;76.50;;;;;;4936175;29;20352;-49
2022/07/27 11:39:44;;;;;;;3.50;1.48;;;24.10;75.60;;;;;;4935857;29;20112;-53
2022/07/27 11:42:10;;;;;;;3.42;1.30;;;24.40;74.20;;;;;;4935744;29;20055;-55
2022/07/27 11:44:38;;;;;;;4.25;1.23;;;24.00;74.40;;;;;;4935166;29;20060;-50
2022/07/27 11:47:04;;;;;;;3.38;1.50;;;23.70;75.60;;;;;;4935444;29;20409;-54
2022/07/27 11:49:31;;;;;;;3.13;1.50;;;23.60;76.00;;;;;;4935453;29;20028;-55
2022/07/27 11:52:03;;;;;;;2.53;1.15;;;23.70;76.10;;;;;;4935817;29;20433;-51
2022/07/27 11:54:32;;;;;;;6.35;1.20;;;23.80;76.00;;;;;;4936172;29;20071;-53
2022/07/27 11:57:02;;;;;;;3.45;1.48;;;23.90;75.80;;;;;;4936766;29;20421;-53
2022/07/27 11:59:29;;;;;;;4.63;1.15;;;24.00;75.40;;;;;;4936156;29;20067;-53
2022/07/27 12:02:03;;;;;;;4.97;1.10;;;24.10;75.30;;;;;;4937419;29;20405;-52
2022/07/27 12:04:32;;;;;;;4.68;1.65;;;24.30;73.90;;;;;;4935629;29;20054;-56
2022/07/27 12:07:11;;;;;;;6.53;1.95;;;24.30;73.70;;;;;;4935459;29;20082;-49
2022/07/27 12:09:40;;;;;;;1.77;1.08;;;24.50;73.20;;;;;;4935639;29;20028;-53
2022/07/27 12:12:16;;;;;;;8.95;1.60;;;24.60;72.00;;;;;;4935330;29;20039;-50
2022/07/27 12:14:44;;;;;;;2.80;1.30;;;24.40;72.80;;;;;;4934967;29;20102;-49
2022/07/27 12:17:25;;;;;;;13.27;1.15;;;24.20;72.60;;;;;;4935203;29;20082;-52
2022/07/27 12:19:55;;;;;;;3.70;1.08;;;24.20;74.20;;;;;;4935179;29;20070;-50
2022/07/27 12:22:29;;;;;;;3.05;0.98;;;24.20;73.40;;;;;;4934982;29;20408;-51
2022/07/27 12:24:56;;;;;;;3.90;1.77;;;24.10;72.60;;;;;;4933898;29;20035;-49
2022/07/27 12:27:22;;;;;;;2.65;1.02;;;24.20;73.70;;;;;;4934614;29;20035;-49
2022/07/27 12:30:06;;;;;;;4.05;0.90;;;24.20;72.10;;;;;;4935328;29;20032;-53
2022/07/27 12:32:34;;;;;;;3.35;1.58;;;24.10;73.00;;;;;;4934901;29;20187;-53
2022/07/27 12:35:00;;;;;;;2.50;1.20;;;24.20;73.30;;;;;;4934815;29;20024;-55
2022/07/27 12:37:30;;;;;;;4.45;1.30;;;24.20;73.70;;;;;;4934580;29;20123;-49
2022/07/27 12:39:56;;;;;;;2.90;1.33;;;24.20;72.70;;;;;;4935015;29;20028;-49
2022/07/27 12:42:32;;;;;;;3.42;2.00;;;24.00;73.70;;;;;;4935011;29;20032;-48
2022/07/27 12:45:08;;;;;;;2.03;1.10;;;23.80;73.30;;;;;;4933261;29;20031;-52
2022/07/27 12:47:40;;;;;;;6.22;1.20;;;23.80;73.80;;;;;;4933566;29;20397;-51
2022/07/27 12:50:10;;;;;;;5.35;1.67;;;23.70;74.80;;;;;;4934406;29;20024;-54